Time;durP1;ratioP1;P1;durP2;ratioP2;P2;SDS_P1;SDS_P2;PMS_P1;PMS_P2;Temp;Humidity;BMP_temperature;BMP_pressure;BME280_temperature;BME280_humidity;BME280_pressure;Samples;Min_cycle;Max_cycle;Signal;HPM_P1;HPM_P2
2021/10/06 00:00:14;;;;;;;5.32;4.10;;;;;;;12.82;45.71;94611.78;5002337;28;20075;-75
2021/10/06 00:02:39;;;;;;;9.15;4.38;;;;;;;12.68;45.67;94605.75;5009635;28;20048;-76
2021/10/06 00:05:08;;;;;;;6.68;4.18;;;;;;;12.74;46.11;94609.88;5010281;28;20042;-72
2021/10/06 00:07:34;;;;;;;4.95;3.45;;;;;;;12.79;45.98;94606.28;5005394;28;20056;-76
2021/10/06 00:09:59;;;;;;;5.57;4.43;;;;;;;12.74;46.08;94617.88;5009794;28;20054;-77
2021/10/06 00:12:24;;;;;;;5.18;3.90;;;;;;;12.65;46.40;94594.91;5008987;28;20061;-76
2021/10/06 00:14:50;;;;;;;5.80;4.47;;;;;;;12.66;46.43;94583.94;5007014;28;20029;-76
2021/10/06 00:17:15;;;;;;;5.18;4.25;;;;;;;12.67;46.70;94596.16;5007896;28;20069;-76
2021/10/06 00:19:40;;;;;;;4.65;4.05;;;;;;;12.58;46.72;94584.69;5009431;28;20083;-77
2021/10/06 00:22:06;;;;;;;5.32;4.03;;;;;;;12.72;46.77;94589.91;5010663;28;20037;-76
2021/10/06 00:24:31;;;;;;;8.07;4.55;;;;;;;12.69;46.91;94591.34;5008548;28;20143;-77
2021/10/06 00:26:57;;;;;;;4.85;3.75;;;;;;;12.67;46.93;94566.81;5007467;28;20492;-76
2021/10/06 00:29:22;;;;;;;4.85;3.90;;;;;;;12.67;46.75;94574.81;5007699;28;20132;-76
2021/10/06 00:31:47;;;;;;;5.80;4.68;;;;;;;12.82;46.23;94578.97;5009542;28;20405;-75
2021/10/06 00:34:15;;;;;;;6.35;3.88;;;;;;;12.75;46.50;94600.78;5011085;28;20039;-77
2021/10/06 00:36:41;;;;;;;4.72;4.05;;;;;;;12.56;46.93;94581.50;5009802;28;25516;-77
2021/10/06 00:39:06;;;;;;;4.72;3.90;;;;;;;12.63;46.59;94589.88;5007398;28;20112;-77
2021/10/06 00:41:31;;;;;;;7.18;4.72;;;;;;;12.65;46.81;94590.38;5007636;28;20052;-77
2021/10/06 00:43:57;;;;;;;5.18;4.32;;;;;;;12.63;46.93;94587.22;5010923;28;20613;-77
2021/10/06 00:46:22;;;;;;;6.28;4.10;;;;;;;12.18;47.55;94565.13;5005761;28;20117;-76
2021/10/06 00:48:48;;;;;;;6.03;4.40;;;;;;;12.21;47.90;94574.41;5006570;28;20045;-76
2021/10/06 00:51:13;;;;;;;5.93;4.20;;;;;;;12.06;48.24;94548.09;5010238;28;20029;-75
2021/10/06 00:53:39;;;;;;;5.63;3.80;;;;;;;11.94;48.62;94565.44;5008997;28;20038;-77
2021/10/06 00:56:05;;;;;;;7.05;5.35;;;;;;;11.89;49.10;94572.75;5012337;28;20054;-75
2021/10/06 00:58:32;;;;;;;5.47;4.32;;;;;;;11.83;49.08;94564.09;5023446;28;20060;-76
2021/10/06 01:00:57;;;;;;;6.13;4.50;;;;;;;11.84;48.83;94563.00;5008262;28;20559;-77
2021/10/06 01:03:23;;;;;;;5.60;4.20;;;;;;;11.82;49.20;94554.53;5004610;28;20032;-76
2021/10/06 01:05:49;;;;;;;5.65;4.35;;;;;;;11.84;48.98;94554.22;5007001;28;20495;-75
2021/10/06 01:08:15;;;;;;;5.05;3.88;;;;;;;11.87;48.84;94557.09;5006700;28;20061;-77
2021/10/06 01:10:41;;;;;;;6.30;4.25;;;;;;;11.94;48.76;94559.31;5008338;28;20091;-76
2021/10/06 01:13:07;;;;;;;6.22;4.80;;;;;;;12.04;48.31;94554.53;5009003;28;20585;-76
2021/10/06 01:15:33;;;;;;;7.93;4.72;;;;;;;12.00;48.30;94555.44;5007357;28;20782;-75
2021/10/06 01:17:58;;;;;;;5.28;3.67;;;;;;;11.89;48.58;94562.09;5011467;28;20021;-76
2021/10/06 01:20:24;;;;;;;6.40;3.90;;;;;;;11.88;48.43;94555.22;5014152;28;20034;-77
2021/10/06 01:22:50;;;;;;;5.13;3.97;;;;;;;11.88;48.15;94533.88;5011236;28;20057;-76
2021/10/06 01:25:16;;;;;;;7.93;4.28;;;;;;;11.73;48.61;94551.03;5015905;28;20473;-77
2021/10/06 01:27:43;;;;;;;8.18;4.00;;;;;;;11.58;48.72;94527.38;5007868;28;20041;-76
2021/10/06 01:30:11;;;;;;;5.32;3.90;;;;;;;11.77;48.30;94549.31;5012754;28;20029;-77
2021/10/06 01:32:39;;;;;;;8.57;4.38;;;;;;;11.76;48.58;94553.06;5012945;28;20037;-78
2021/10/06 01:35:08;;;;;;;7.45;5.22;;;;;;;11.68;48.90;94548.47;5013491;28;20030;-76
2021/10/06 01:37:35;;;;;;;5.57;4.07;;;;;;;11.71;48.70;94553.19;5007680;28;20781;-73
2021/10/06 01:40:07;;;;;;;6.80;4.53;;;;;;;11.73;48.64;94545.69;5012376;28;20402;-76
2021/10/06 01:42:34;;;;;;;5.30;4.45;;;;;;;11.56;48.79;94532.22;5007510;28;20052;-76
2021/10/06 01:44:59;;;;;;;4.90;4.25;;;;;;;11.64;49.05;94555.47;5011984;28;20030;-75
2021/10/06 01:47:25;;;;;;;7.25;4.22;;;;;;;11.50;49.38;94550.16;5010858;28;20048;-77
2021/10/06 01:49:52;;;;;;;7.03;4.00;;;;;;;11.54;49.24;94547.72;5009680;28;20168;-76
2021/10/06 01:52:24;;;;;;;5.82;4.43;;;;;;;11.47;49.36;94540.13;5015228;28;20052;-77
2021/10/06 01:54:53;;;;;;;6.10;4.25;;;;;;;11.75;48.62;94554.16;5014223;28;20562;-75
2021/10/06 01:57:19;;;;;;;6.90;4.60;;;;;;;11.60;48.99;94560.63;5012215;28;20168;-77
2021/10/06 01:59:46;;;;;;;5.25;4.18;;;;;;;11.68;48.97;94556.47;5011982;28;20033;-76
2021/10/06 02:02:11;;;;;;;5.72;4.22;;;;;;;11.57;48.71;94539.13;5008428;28;20033;-76
2021/10/06 02:04:38;;;;;;;5.20;3.83;;;;;;;11.65;48.84;94559.72;5012875;28;20038;-77
2021/10/06 02:07:03;;;;;;;6.25;4.20;;;;;;;11.56;49.13;94553.53;5009508;28;20488;-76
2021/10/06 02:09:28;;;;;;;6.95;4.28;;;;;;;11.61;48.70;94550.75;5013969;28;20056;-76
2021/10/06 02:11:54;;;;;;;5.38;4.30;;;;;;;11.59;48.56;94548.38;5008530;28;21484;-75
2021/10/06 02:14:21;;;;;;;9.18;4.95;;;;;;;11.64;48.88;94560.78;5008699;28;20038;-76
2021/10/06 02:16:46;;;;;;;7.00;4.78;;;;;;;11.70;48.70;94559.59;5010551;28;20044;-76
2021/10/06 02:19:12;;;;;;;7.07;4.70;;;;;;;11.72;48.84;94553.97;5010838;28;20038;-77
2021/10/06 02:21:38;;;;;;;7.55;4.55;;;;;;;11.65;48.59;94538.41;5009115;28;20037;-77
2021/10/06 02:24:05;;;;;;;6.63;5.00;;;;;;;11.84;48.62;94563.00;5009617;28;20113;-71
2021/10/06 02:26:34;;;;;;;6.63;3.90;;;;;;;11.78;48.62;94564.22;5011638;28;20036;-76
2021/10/06 02:29:00;;;;;;;7.15;5.20;;;;;;;11.64;48.96;94563.47;5009035;28;20040;-75
2021/10/06 02:31:26;;;;;;;6.25;4.18;;;;;;;11.68;49.03;94567.13;5016484;28;20033;-76
2021/10/06 02:33:51;;;;;;;6.90;5.40;;;;;;;11.70;48.71;94564.94;5006955;28;20407;-76
2021/10/06 02:36:17;;;;;;;7.55;5.07;;;;;;;11.58;49.03;94562.03;5012637;28;20071;-75
2021/10/06 02:38:42;;;;;;;9.18;5.13;;;;;;;11.72;49.12;94562.75;5009528;28;20037;-76
2021/10/06 02:41:07;;;;;;;7.13;4.88;;;;;;;11.60;49.25;94557.16;5012951;28;20044;-76
2021/10/06 02:43:33;;;;;;;7.05;4.90;;;;;;;11.52;49.70;94552.56;5011755;28;20677;-76
2021/10/06 02:45:59;;;;;;;6.10;5.18;;;;;;;11.46;49.80;94551.06;5008936;28;20040;-77
2021/10/06 02:48:24;;;;;;;7.50;5.35;;;;;;;11.53;49.60;94559.47;5010112;28;20024;-77
2021/10/06 02:50:51;;;;;;;6.82;4.38;;;;;;;11.49;49.75;94563.78;5009339;28;20036;-77
2021/10/06 02:53:16;;;;;;;8.48;5.03;;;;;;;11.52;49.17;94560.56;5012388;28;20037;-76
2021/10/06 02:55:42;;;;;;;8.27;4.78;;;;;;;11.56;49.30;94561.53;5009857;28;20522;-77
2021/10/06 02:58:07;;;;;;;10.35;6.15;;;;;;;11.50;49.26;94554.69;5010889;28;20059;-76
2021/10/06 03:00:32;;;;;;;7.90;5.65;;;;;;;11.41;49.62;94559.16;5010791;28;20578;-76
2021/10/06 03:02:58;;;;;;;10.88;6.03;;;;;;;11.48;49.11;94557.69;5007083;28;20105;-76
2021/10/06 03:05:23;;;;;;;11.32;7.22;;;;;;;11.47;49.42;94561.44;5008564;28;20408;-75
2021/10/06 03:07:49;;;;;;;15.50;7.22;;;;;;;11.54;49.08;94551.16;5009821;28;20038;-76
2021/10/06 03:10:14;;;;;;;11.00;7.22;;;;;;;11.65;48.67;94554.38;5007868;28;20068;-73
2021/10/06 03:12:40;;;;;;;15.15;7.57;;;;;;;11.62;48.76;94555.00;5010796;28;20041;-77
2021/10/06 03:15:07;;;;;;;14.68;7.63;;;;;;;11.55;49.00;94557.28;5009310;28;20041;-77
2021/10/06 03:17:33;;;;;;;10.70;7.18;;;;;;;11.34;49.12;94529.50;5008204;28;20488;-76
2021/10/06 03:20:00;;;;;;;10.93;7.53;;;;;;;11.43;49.51;94552.47;5011585;28;20037;-76
2021/10/06 03:22:25;;;;;;;13.25;6.75;;;;;;;11.37;49.06;94542.22;5007568;28;20430;-76
2021/10/06 03:24:51;;;;;;;12.38;7.05;;;;;;;11.40;48.87;94554.91;5008175;28;20527;-76
2021/10/06 03:27:16;;;;;;;9.82;5.95;;;;;;;11.46;48.30;94543.06;5013984;28;20099;-77
2021/10/06 03:29:43;;;;;;;12.13;7.22;;;;;;;11.40;48.81;94554.91;5008801;28;20497;-76
2021/10/06 03:32:09;;;;;;;12.85;6.93;;;;;;;11.41;48.69;94556.50;5010028;28;20030;-77
2021/10/06 03:34:34;;;;;;;10.38;6.57;;;;;;;11.47;48.64;94557.97;5009363;28;20583;-75
2021/10/06 03:37:00;;;;;;;10.15;6.95;;;;;;;11.32;48.95;94553.75;5009529;28;20045;-77
2021/10/06 03:39:25;;;;;;;10.65;6.03;;;;;;;11.21;49.42;94547.06;5010721;28;20025;-76
2021/10/06 03:41:51;;;;;;;7.57;4.93;;;;;;;11.31;48.94;94562.03;5009614;28;20066;-76
2021/10/06 03:44:16;;;;;;;12.43;6.32;;;;;;;11.28;49.09;94552.00;5010848;28;20041;-77
2021/10/06 03:46:42;;;;;;;12.65;6.75;;;;;;;11.14;49.07;94542.16;5006823;28;20037;-77
2021/10/06 03:49:07;;;;;;;9.00;6.25;;;;;;;11.20;48.98;94544.72;5009619;28;20044;-76
2021/10/06 03:51:32;;;;;;;9.10;5.85;;;;;;;11.28;48.88;94542.13;5012308;28;20412;-76
2021/10/06 03:53:58;;;;;;;13.13;5.90;;;;;;;11.26;48.42;94530.19;5005641;28;20327;-75
2021/10/06 03:56:24;;;;;;;9.43;6.18;;;;;;;11.27;48.55;94545.09;5003851;28;20317;-76
2021/10/06 03:58:49;;;;;;;8.93;5.20;;;;;;;11.42;48.42;94547.44;5002800;28;20034;-76
2021/10/06 04:01:15;;;;;;;8.32;5.47;;;;;;;11.23;48.78;94544.91;5007181;28;20045;-75
2021/10/06 04:03:40;;;;;;;8.65;4.93;;;;;;;11.17;48.79;94549.53;5006032;28;20090;-77
2021/10/06 04:06:06;;;;;;;7.00;5.20;;;;;;;10.91;48.93;94524.53;5006526;28;20030;-75
2021/10/06 04:08:31;;;;;;;9.75;5.32;;;;;;;11.05;48.64;94533.28;5006708;28;20141;-76
2021/10/06 04:10:57;;;;;;;10.32;5.88;;;;;;;11.05;48.85;94541.25;5005832;28;20483;-76
2021/10/06 04:13:22;;;;;;;9.00;5.28;;;;;;;10.95;49.18;94541.50;5004787;28;20725;-77
2021/10/06 04:15:47;;;;;;;7.10;4.70;;;;;;;10.65;50.00;94512.84;5004919;28;20037;-72
2021/10/06 04:18:13;;;;;;;7.68;4.22;;;;;;;10.71;49.83;94522.28;5007431;28;21153;-76
2021/10/06 04:20:39;;;;;;;9.60;6.30;;;;;;;10.37;50.24;94487.31;5004411;28;20048;-77
2021/10/06 04:23:05;;;;;;;7.57;5.15;;;;;;;10.70;50.16;94537.47;5006516;28;20365;-77
2021/10/06 04:25:31;;;;;;;11.00;6.47;;;;;;;10.85;49.45;94539.03;5005457;28;20078;-76
2021/10/06 04:27:59;;;;;;;11.15;6.72;;;;;;;10.90;49.46;94536.28;5004931;28;20613;-77
2021/10/06 04:30:25;;;;;;;9.18;5.47;;;;;;;10.70;49.27;94526.81;5008172;28;20025;-77
2021/10/06 04:32:50;;;;;;;7.65;5.20;;;;;;;10.72;50.06;94529.19;5003462;28;20327;-75
2021/10/06 04:35:15;;;;;;;12.35;5.70;;;;;;;10.74;50.11;94527.03;5009126;28;20493;-76
2021/10/06 04:37:41;;;;;;;9.43;6.20;;;;;;;10.73;50.31;94530.75;5004062;28;20099;-77
2021/10/06 04:40:07;;;;;;;8.98;5.97;;;;;;;10.61;50.43;94504.63;5004027;28;20434;-76
2021/10/06 04:42:33;;;;;;;8.32;5.68;;;;;;;10.73;50.38;94525.44;5007004;28;20479;-77
2021/10/06 04:44:58;;;;;;;9.40;5.57;;;;;;;10.65;50.38;94510.16;5006236;28;20029;-76
2021/10/06 04:47:24;;;;;;;7.82;5.35;;;;;;;10.61;50.60;94525.16;5012504;28;20041;-77
2021/10/06 04:49:49;;;;;;;10.23;6.47;;;;;;;10.82;50.38;94534.28;5006411;28;20490;-76
2021/10/06 04:52:15;;;;;;;12.65;6.30;;;;;;;10.88;50.06;94509.16;5007577;28;20048;-75
2021/10/06 04:54:40;;;;;;;9.23;6.22;;;;;;;10.90;50.41;94530.97;5010634;28;20084;-77
2021/10/06 04:57:05;;;;;;;11.13;6.10;;;;;;;10.79;50.31;94521.59;5014949;28;20396;-76
2021/10/06 04:59:31;;;;;;;13.75;5.95;;;;;;;10.60;50.91;94494.31;5011041;28;20114;-76
2021/10/06 05:01:58;;;;;;;11.40;7.35;;;;;;;10.85;50.86;94538.25;5010251;28;20555;-78
2021/10/06 05:04:24;;;;;;;9.05;5.80;;;;;;;10.81;50.58;94519.41;5010721;28;20108;-76
2021/10/06 05:06:49;;;;;;;8.57;6.18;;;;;;;10.79;50.59;94504.84;5008070;28;20049;-77
2021/10/06 05:09:15;;;;;;;10.13;6.60;;;;;;;10.90;50.88;94527.50;5010229;28;20455;-75
2021/10/06 05:11:41;;;;;;;9.55;6.53;;;;;;;11.07;50.46;94528.47;5011574;28;20042;-77
2021/10/06 05:14:07;;;;;;;9.05;6.13;;;;;;;11.18;50.64;94532.50;5024146;28;20168;-76
2021/10/06 05:16:33;;;;;;;11.43;7.70;;;;;;;11.16;50.43;94532.00;5003431;28;20120;-77
2021/10/06 05:18:58;;;;;;;10.27;7.13;;;;;;;11.19;50.82;94527.97;5011439;28;20310;-77
2021/10/06 05:21:24;;;;;;;13.88;7.10;;;;;;;11.23;50.58;94528.94;5011578;28;20199;-76
2021/10/06 05:23:49;;;;;;;10.40;7.93;;;;;;;11.32;50.44;94524.47;5009037;28;21165;-76
2021/10/06 05:26:15;;;;;;;10.93;6.75;;;;;;;11.36;50.38;94528.09;5014080;28;20092;-77
2021/10/06 05:28:40;;;;;;;9.00;6.50;;;;;;;11.42;50.42;94510.13;5005295;28;20045;-77
2021/10/06 05:31:06;;;;;;;13.70;6.97;;;;;;;11.41;50.10;94503.22;5011446;28;20408;-76
2021/10/06 05:33:32;;;;;;;10.23;6.65;;;;;;;11.49;49.79;94499.88;5007254;28;20116;-76
2021/10/06 05:35:57;;;;;;;7.82;6.28;;;;;;;11.85;49.21;94508.59;5008683;28;20112;-77
2021/10/06 05:38:22;;;;;;;8.30;6.53;;;;;;;11.81;49.02;94496.97;5007018;28;20141;-75
2021/10/06 05:40:51;;;;;;;11.27;5.93;;;;;;;11.87;49.05;94506.44;5007924;28;20595;-77
2021/10/06 05:43:17;;;;;;;9.40;5.80;;;;;;;11.67;49.54;94500.81;5010682;28;20077;-77
2021/10/06 05:45:43;;;;;;;10.38;6.60;;;;;;;11.64;49.72;94499.50;5006546;28;20119;-76
2021/10/06 05:48:08;;;;;;;9.90;6.95;;;;;;;11.58;50.20;94514.06;5005202;28;20464;-75
2021/10/06 05:50:43;;;;;;;12.02;6.28;;;;;;;11.54;50.49;94519.19;5009627;28;20068;-75
2021/10/06 05:53:08;;;;;;;12.25;6.80;;;;;;;11.51;50.12;94524.34;5019104;28;20075;-77
2021/10/06 05:55:40;;;;;;;8.55;6.28;;;;;;;11.40;50.71;94528.28;5007963;28;20492;-72
2021/10/06 05:58:06;;;;;;;10.95;6.40;;;;;;;11.43;50.89;94522.38;5009837;28;20091;-76
2021/10/06 06:00:31;;;;;;;9.38;6.38;;;;;;;11.37;51.16;94536.88;5010841;28;20029;-76
2021/10/06 06:02:56;;;;;;;8.75;6.50;;;;;;;11.56;51.11;94533.00;5013688;28;20018;-77
2021/10/06 06:05:22;;;;;;;9.68;6.10;;;;;;;11.75;50.51;94535.50;5004443;28;20045;-77
2021/10/06 06:07:47;;;;;;;8.15;5.53;;;;;;;11.87;50.92;94543.75;5015563;28;20568;-73
2021/10/06 06:10:13;;;;;;;11.13;6.20;;;;;;;11.77;50.49;94541.31;5006903;28;20046;-75
2021/10/06 06:12:39;;;;;;;9.65;7.05;;;;;;;12.12;49.90;94541.56;5010385;28;20505;-76
2021/10/06 06:15:05;;;;;;;8.77;5.85;;;;;;;11.98;50.29;94530.94;5006478;28;20037;-76
2021/10/06 06:17:37;;;;;;;9.50;6.53;;;;;;;11.79;50.73;94501.03;5004693;28;20095;-77
2021/10/06 06:20:05;;;;;;;11.50;6.30;;;;;;;12.00;50.24;94518.09;5009235;28;20089;-76
2021/10/06 06:22:30;;;;;;;11.20;6.22;;;;;;;12.00;50.79;94518.91;5003630;28;20037;-73
2021/10/06 06:24:55;;;;;;;11.25;7.15;;;;;;;12.23;50.43;94519.66;5011212;28;20535;-76
2021/10/06 06:27:21;;;;;;;10.70;7.03;;;;;;;12.12;50.77;94539.69;5008058;28;20029;-77
2021/10/06 06:29:47;;;;;;;10.57;7.35;;;;;;;11.98;50.94;94515.75;5010858;28;20133;-72
2021/10/06 06:32:12;;;;;;;10.75;7.50;;;;;;;11.63;51.41;94511.28;5009237;28;20507;-73
2021/10/06 06:34:38;;;;;;;8.40;6.47;;;;;;;11.38;52.37;94530.47;5006300;28;20172;-75
2021/10/06 06:37:03;;;;;;;11.30;6.95;;;;;;;11.08;52.97;94518.59;5001783;28;20878;-77
2021/10/06 06:39:28;;;;;;;9.90;6.30;;;;;;;11.17;53.42;94514.94;5008027;28;20034;-77
2021/10/06 06:41:54;;;;;;;10.93;7.35;;;;;;;11.46;53.28;94527.88;5005164;28;20017;-77
2021/10/06 06:44:19;;;;;;;12.27;7.22;;;;;;;11.64;52.40;94525.41;5009898;28;20092;-77
2021/10/06 06:46:45;;;;;;;9.55;6.82;;;;;;;11.36;52.66;94516.66;5012392;28;20034;-77
2021/10/06 06:49:10;;;;;;;12.27;7.82;;;;;;;11.82;52.57;94522.56;5016344;28;20080;-77
2021/10/06 06:51:36;;;;;;;11.85;7.20;;;;;;;11.67;52.49;94495.47;5013386;28;20021;-75
2021/10/06 06:54:03;;;;;;;11.20;7.07;;;;;;;11.70;52.44;94530.28;5010693;28;20022;-78
2021/10/06 06:56:31;;;;;;;10.77;7.28;;;;;;;11.61;52.25;94508.13;5013124;28;20045;-73
2021/10/06 06:58:56;;;;;;;10.05;6.55;;;;;;;11.65;52.33;94505.63;5010581;28;20037;-77
2021/10/06 07:01:22;;;;;;;12.25;7.68;;;;;;;11.80;52.14;94519.38;5020289;28;20396;-75
2021/10/06 07:03:47;;;;;;;13.48;7.55;;;;;;;11.85;51.75;94508.59;5013594;28;20056;-75
2021/10/06 07:06:12;;;;;;;10.80;7.05;;;;;;;11.32;53.45;94527.13;5013582;28;20031;-76
2021/10/06 07:08:38;;;;;;;11.32;7.03;;;;;;;11.41;53.05;94529.84;5011237;28;20570;-76
2021/10/06 07:11:03;;;;;;;11.57;7.18;;;;;;;11.36;53.54;94540.63;5012993;28;20554;-75
2021/10/06 07:13:30;;;;;;;8.90;6.47;;;;;;;11.52;52.76;94525.91;5011541;28;20057;-76
2021/10/06 07:15:57;;;;;;;12.35;7.15;;;;;;;11.60;53.31;94541.19;5014431;28;20560;-77
2021/10/06 07:18:23;;;;;;;23.88;8.45;;;;;;;11.58;52.80;94546.03;5007557;28;20412;-75
2021/10/06 07:20:48;;;;;;;11.10;7.10;;;;;;;11.67;53.48;94554.09;5005543;28;20414;-77
2021/10/06 07:23:14;;;;;;;10.40;7.60;;;;;;;12.00;52.58;94548.22;5008818;28;20029;-76
2021/10/06 07:25:39;;;;;;;9.73;6.65;;;;;;;12.11;52.06;94554.09;5012877;28;20033;-78
2021/10/06 07:28:04;;;;;;;11.13;8.10;;;;;;;11.50;52.96;94544.03;5010569;28;20049;-76
2021/10/06 07:30:30;;;;;;;10.18;7.15;;;;;;;11.63;52.83;94556.56;5009696;28;20056;-77
2021/10/06 07:32:58;;;;;;;10.32;7.15;;;;;;;11.98;52.01;94553.06;5012071;28;21053;-76
2021/10/06 07:35:23;;;;;;;9.95;6.93;;;;;;;11.96;52.17;94557.94;5010559;28;20133;-76
2021/10/06 07:37:49;;;;;;;9.70;6.57;;;;;;;12.14;52.15;94564.16;5012703;28;20687;-77
2021/10/06 07:40:14;;;;;;;10.75;7.60;;;;;;;12.01;52.10;94552.47;5009885;28;20041;-75
2021/10/06 07:42:39;;;;;;;10.02;7.40;;;;;;;12.16;52.11;94561.97;5010105;28;20782;-78
2021/10/06 07:45:06;;;;;;;10.85;7.25;;;;;;;12.17;51.70;94557.44;5008010;28;20236;-77
2021/10/06 07:47:31;;;;;;;11.40;7.57;;;;;;;12.43;51.45;94567.16;5012778;28;20045;-76
2021/10/06 07:49:56;;;;;;;10.43;6.95;;;;;;;12.45;51.42;94566.84;5010164;28;20337;-76
2021/10/06 07:52:22;;;;;;;12.23;7.55;;;;;;;12.69;50.50;94553.19;5012625;28;20092;-76
2021/10/06 07:54:47;;;;;;;13.00;7.57;;;;;;;12.63;50.24;94579.22;5013700;28;20172;-77
2021/10/06 07:57:13;;;;;;;10.18;7.25;;;;;;;12.43;50.54;94582.38;5011973;28;20049;-76
2021/10/06 07:59:38;;;;;;;10.52;7.07;;;;;;;12.73;50.53;94578.94;5012196;28;20044;-77
2021/10/06 08:02:04;;;;;;;10.65;7.03;;;;;;;13.05;49.54;94579.69;5012806;28;20033;-78
2021/10/06 08:04:30;;;;;;;9.73;7.15;;;;;;;13.00;49.47;94564.59;5012419;28;20034;-73
2021/10/06 08:06:55;;;;;;;14.18;8.45;;;;;;;12.98;49.53;94569.47;5008641;28;20471;-77
2021/10/06 08:09:21;;;;;;;11.00;6.53;;;;;;;13.24;49.60;94585.56;5010128;28;20057;-76
2021/10/06 08:11:46;;;;;;;10.77;6.93;;;;;;;13.47;48.49;94576.34;5010348;28;20575;-74
2021/10/06 08:14:12;;;;;;;12.73;6.97;;;;;;;13.08;48.55;94565.72;5011417;28;20061;-77
2021/10/06 08:16:37;;;;;;;10.27;7.05;;;;;;;13.19;48.97;94575.03;5010901;28;20049;-76
2021/10/06 08:19:04;;;;;;;11.07;6.82;;;;;;;13.29;48.59;94577.41;5011127;28;20042;-77
2021/10/06 08:21:30;;;;;;;10.90;7.10;;;;;;;13.44;47.83;94568.16;5006608;28;20360;-77
2021/10/06 08:23:56;;;;;;;10.18;7.10;;;;;;;13.58;47.82;94572.28;5007406;28;20100;-77
2021/10/06 08:26:22;;;;;;;9.10;7.03;;;;;;;13.40;47.91;94589.34;5011821;28;20037;-75
2021/10/06 08:28:47;;;;;;;11.90;7.40;;;;;;;12.91;49.29;94565.69;5008643;28;20083;-77
2021/10/06 08:31:13;;;;;;;11.93;7.38;;;;;;;13.20;48.75;94558.66;5010766;28;20412;-77
2021/10/06 08:33:39;;;;;;;11.30;7.40;;;;;;;13.21;49.00;94576.28;5006846;28;20034;-76
2021/10/06 08:36:04;;;;;;;10.55;7.75;;;;;;;13.57;48.44;94557.31;5010557;28;20064;-78
2021/10/06 08:38:29;;;;;;;10.55;7.13;;;;;;;13.65;47.53;94561.91;5012373;28;20064;-77
2021/10/06 08:40:56;;;;;;;11.48;7.70;;;;;;;13.58;48.48;94566.91;5005363;28;20030;-76
2021/10/06 08:43:22;;;;;;;13.00;8.27;;;;;;;13.71;47.92;94560.66;5006330;28;20091;-77
2021/10/06 08:45:48;;;;;;;9.35;6.70;;;;;;;13.67;47.89;94567.75;5011636;28;20041;-75
2021/10/06 08:48:13;;;;;;;10.55;6.30;;;;;;;13.79;47.64;94564.41;5010631;28;20071;-72
2021/10/06 08:50:39;;;;;;;14.15;7.53;;;;;;;14.03;47.55;94563.97;5011675;28;21380;-77
2021/10/06 08:53:05;;;;;;;47.50;9.27;;;;;;;14.05;47.23;94556.41;5012169;28;20510;-77
2021/10/06 08:55:31;;;;;;;9.40;6.03;;;;;;;14.22;46.60;94556.38;5013420;28;20407;-75
2021/10/06 08:57:59;;;;;;;10.15;7.03;;;;;;;14.10;46.47;94537.50;5008847;28;20090;-75
2021/10/06 09:00:25;;;;;;;9.60;6.70;;;;;;;14.33;46.91;94551.47;5013029;28;20608;-76
2021/10/06 09:02:51;;;;;;;12.18;8.07;;;;;;;14.07;46.62;94538.16;5009844;28;20087;-77
2021/10/06 09:05:22;;;;;;;10.20;7.05;;;;;;;14.22;46.63;94555.59;5010367;28;20113;-77
2021/10/06 09:08:05;;;;;;;10.98;6.82;;;;;;;14.39;46.55;94555.56;5010631;28;20496;-76
2021/10/06 09:10:33;;;;;;;9.40;6.47;;;;;;;13.99;46.62;94545.06;5013840;28;20083;-77
2021/10/06 09:13:07;;;;;;;9.27;6.53;;;;;;;13.73;47.88;94553.13;5005720;28;20048;-77
2021/10/06 09:15:49;;;;;;;9.23;6.40;;;;;;;13.69;47.46;94554.06;5011885;28;20405;-76
2021/10/06 09:18:23;;;;;;;10.55;6.80;;;;;;;13.63;47.86;94553.44;5009358;28;20026;-76
2021/10/06 09:20:50;;;;;;;19.20;8.68;;;;;;;13.78;47.72;94543.38;5010946;28;20522;-78
2021/10/06 09:23:18;;;;;;;12.30;7.10;;;;;;;13.64;47.81;94557.66;5012654;28;20121;-77
2021/10/06 09:25:55;;;;;;;11.25;7.35;;;;;;;13.60;47.84;94562.06;5012849;28;20041;-77
2021/10/06 09:28:22;;;;;;;11.68;8.25;;;;;;;13.89;47.64;94561.44;5006413;28;20450;-77
2021/10/06 09:30:56;;;;;;;10.20;7.75;;;;;;;13.53;47.52;94540.34;5010610;28;20033;-76
2021/10/06 09:33:22;;;;;;;11.43;6.97;;;;;;;13.59;47.79;94560.47;5004195;28;20028;-76
2021/10/06 09:36:06;;;;;;;11.02;7.40;;;;;;;13.71;48.16;94563.34;5007788;28;20108;-76
2021/10/06 09:38:43;;;;;;;11.73;7.70;;;;;;;13.92;47.73;94552.81;5012604;28;20128;-76
2021/10/06 09:41:24;;;;;;;11.30;7.55;;;;;;;13.70;48.08;94567.09;5011269;28;20038;-76
2021/10/06 09:44:18;;;;;;;14.35;8.23;;;;;;;13.82;47.89;94553.13;5011830;28;20033;-76
2021/10/06 09:46:52;;;;;;;11.13;7.43;;;;;;;13.67;48.25;94545.56;5008595;28;20066;-77
2021/10/06 09:49:18;;;;;;;13.13;7.60;;;;;;;12.98;49.13;94555.31;5030974;28;20490;-77
2021/10/06 09:51:44;;;;;;;9.98;7.68;;;;;;;13.03;49.29;94549.84;5012519;28;20263;-75
2021/10/06 09:54:10;;;;;;;13.38;7.93;;;;;;;13.24;49.33;94538.28;5011519;28;20084;-76
2021/10/06 09:56:41;;;;;;;11.18;7.38;;;;;;;13.01;49.09;94533.31;5014365;28;20040;-72
2021/10/06 09:59:07;;;;;;;11.23;7.38;;;;;;;13.05;49.08;94539.66;5008915;28;20049;-76
2021/10/06 10:01:39;;;;;;;11.65;7.40;;;;;;;12.96;49.50;94538.84;5010115;28;20037;-76
2021/10/06 10:04:07;;;;;;;11.57;7.35;;;;;;;12.75;50.04;94528.72;5020647;28;20041;-77
2021/10/06 10:06:34;;;;;;;10.65;7.30;;;;;;;12.54;50.11;94514.31;5013103;28;20026;-74
2021/10/06 10:09:09;;;;;;;11.55;7.47;;;;;;;12.66;50.24;94527.91;5006880;28;20329;-77
2021/10/06 10:11:36;;;;;;;13.18;8.73;;;;;;;13.04;50.99;94512.16;5009867;28;20045;-75
2021/10/06 10:14:04;;;;;;;9.75;7.15;;;;;;;13.13;48.94;94506.81;5008894;28;20038;-76
2021/10/06 10:16:31;;;;;;;11.80;8.10;;;;;;;12.92;49.56;94511.16;5006753;28;20595;-75
2021/10/06 10:19:09;;;;;;;14.82;9.05;;;;;;;12.78;49.74;94493.38;5007713;28;20045;-77
2021/10/06 10:21:37;;;;;;;14.98;9.52;;;;;;;13.18;49.48;94512.81;5008619;28;20034;-76
2021/10/06 10:24:08;;;;;;;12.30;8.23;;;;;;;13.26;48.81;94511.22;5008776;28;20021;-76
2021/10/06 10:26:34;;;;;;;11.07;7.30;;;;;;;13.22;48.85;94497.72;5010529;28;20037;-76
2021/10/06 10:29:00;;;;;;;10.75;7.20;;;;;;;13.32;48.52;94518.00;5015702;28;20561;-76
2021/10/06 10:31:25;;;;;;;10.57;8.57;;;;;;;13.31;50.04;94513.75;5009943;28;20048;-76
2021/10/06 10:33:55;;;;;;;10.85;7.32;;;;;;;13.57;48.37;94503.88;5010270;28;21293;-76
2021/10/06 10:36:29;;;;;;;12.95;7.57;;;;;;;13.03;48.86;94509.78;5010858;28;20068;-76
2021/10/06 10:38:56;;;;;;;10.45;7.22;;;;;;;13.21;48.93;94511.38;5016026;28;20073;-77
2021/10/06 10:41:40;;;;;;;13.35;8.15;;;;;;;13.54;48.14;94515.19;5005000;28;20049;-76
2021/10/06 10:44:06;;;;;;;9.10;7.22;;;;;;;13.78;47.95;94503.25;5012615;28;20083;-77
2021/10/06 10:46:54;;;;;;;11.48;8.05;;;;;;;13.98;47.15;94513.31;5008738;28;20634;-76
2021/10/06 10:49:20;;;;;;;11.93;8.48;;;;;;;13.50;48.08;94503.53;5009544;28;20045;-78
2021/10/06 10:51:58;;;;;;;14.32;8.55;;;;;;;13.62;47.54;94519.78;5007482;28;20680;-76
2021/10/06 10:54:33;;;;;;;11.07;7.38;;;;;;;13.65;47.65;94507.66;5006416;28;20041;-76
2021/10/06 10:57:22;;;;;;;10.50;7.75;;;;;;;13.91;47.36;94507.66;5010309;28;20048;-77
2021/10/06 10:59:50;;;;;;;11.80;7.95;;;;;;;13.74;47.51;94503.88;5009753;28;20049;-76
2021/10/06 11:02:20;;;;;;;11.50;8.43;;;;;;;14.07;46.96;94501.50;5006641;28;20495;-76
2021/10/06 11:04:53;;;;;;;11.30;7.65;;;;;;;13.89;47.19;94478.53;5003823;28;20128;-76
2021/10/06 11:07:21;;;;;;;13.02;7.80;;;;;;;14.09;46.43;94485.91;5005660;28;20040;-77
2021/10/06 11:09:46;;;;;;;12.68;7.85;;;;;;;14.11;46.39;94482.91;5012217;28;20399;-77
2021/10/06 11:12:12;;;;;;;13.23;7.97;;;;;;;14.13;46.62;94478.03;5007484;28;20029;-76
2021/10/06 11:14:43;;;;;;;16.23;8.65;;;;;;;13.80;47.54;94469.75;5010206;28;20163;-73
2021/10/06 11:17:20;;;;;;;11.93;7.13;;;;;;;13.73;47.66;94475.59;5010788;28;20529;-75
2021/10/06 11:19:52;;;;;;;10.65;6.80;;;;;;;14.10;47.34;94457.25;5001701;28;20042;-76
2021/10/06 11:22:23;;;;;;;12.20;8.68;;;;;;;13.96;47.11;94470.84;5013114;28;20045;-76
2021/10/06 11:24:50;;;;;;;14.50;9.07;;;;;;;13.98;46.90;94467.84;5009772;28;20046;-77
2021/10/06 11:27:16;;;;;;;14.25;8.35;;;;;;;13.98;47.29;94470.53;5012379;28;20037;-76